Terminal Aerodrome Forecast
Issued by NWS

Current Version | Previous Version | Text Only | Print | Product List | Glossary Off
Versions: 1 2 3 4 5 6 7 8 9 10 11 12 13 14 15 16 17 18 19 20 21 22 23 24

000
FTUS41 KRLX 182300
TAFCKB
TAF
KCKB 182322Z 1900/1924 27004KT 6SM -SHSN OVC017
     FM190800 VRB03KT 6SM -SHSN OVC020
     FM191500 26004KT P6SM OVC025
     FM192000 28005KT P6SM SCT030 SCT250=

USA.gov is the U.S. government's official web portal to all federal, state and local government web resources and services.